Pathein, Burma
Current Conditions -  °F | °C
As of 7:30 AM on Wednesday 28 Jan 2015 (Local Time) from VYYY Reporting Station
Clear Clear  
Wind Chill: 68°   Ceiling: Unl
Heat Index: 68°   Visibility: 4mi
Dew Point: 64°   Wind: 2mph
Humidity: 88%   Direction: 190°S
Pressure: 29.94"   Gusts: NA
Location:  16.78°N, 94.73°E
Report Text: VYYY 280130Z 19002KT 6000 NSC 20/18 Q1014 NOSIG
Loading
Personal Weather Stations






























Interactive Weather Map New forecast layout! Learn more

10-Day Weather Forecast

Advertisements
Track Severe Weather on mobile